sensor_id;sensor_type;location;lat;lon;timestamp;P1;durP1;ratioP1;P2;durP2;ratioP2
15665;SDS011;20725;51.196;3.510;2023-12-22T00:00:33;29.57;;;6.70;;
15665;SDS011;20725;51.196;3.510;2023-12-22T00:03:00;31.47;;;7.30;;
15665;SDS011;20725;51.196;3.510;2023-12-22T00:05:28;29.27;;;6.50;;
15665;SDS011;20725;51.196;3.510;2023-12-22T00:07:58;29.87;;;6.70;;
15665;SDS011;20725;51.196;3.510;2023-12-22T00:10:25;34.23;;;7.17;;
15665;SDS011;20725;51.196;3.510;2023-12-22T00:12:51;25.30;;;6.83;;
15665;SDS011;20725;51.196;3.510;2023-12-22T00:15:19;24.17;;;5.93;;
15665;SDS011;20725;51.196;3.510;2023-12-22T00:17:46;27.10;;;6.10;;
15665;SDS011;20725;51.196;3.510;2023-12-22T00:20:13;27.50;;;6.73;;
15665;SDS011;20725;51.196;3.510;2023-12-22T00:22:41;28.00;;;6.77;;
15665;SDS011;20725;51.196;3.510;2023-12-22T00:25:09;33.30;;;7.60;;
15665;SDS011;20725;51.196;3.510;2023-12-22T00:27:36;33.47;;;5.90;;
15665;SDS011;20725;51.196;3.510;2023-12-22T00:30:05;23.30;;;5.77;;
15665;SDS011;20725;51.196;3.510;2023-12-22T00:32:33;39.20;;;5.93;;
15665;SDS011;20725;51.196;3.510;2023-12-22T00:35:00;15.53;;;4.67;;
15665;SDS011;20725;51.196;3.510;2023-12-22T00:37:27;20.43;;;6.40;;
15665;SDS011;20725;51.196;3.510;2023-12-22T00:39:54;15.87;;;4.80;;
15665;SDS011;20725;51.196;3.510;2023-12-22T00:42:23;20.43;;;5.60;;
15665;SDS011;20725;51.196;3.510;2023-12-22T00:44:51;19.90;;;5.93;;
15665;SDS011;20725;51.196;3.510;2023-12-22T00:47:18;23.07;;;5.83;;
15665;SDS011;20725;51.196;3.510;2023-12-22T00:49:45;23.37;;;5.10;;
15665;SDS011;20725;51.196;3.510;2023-12-22T00:52:13;26.00;;;5.63;;
15665;SDS011;20725;51.196;3.510;2023-12-22T00:54:40;21.93;;;5.53;;
15665;SDS011;20725;51.196;3.510;2023-12-22T00:57:07;28.43;;;6.73;;
15665;SDS011;20725;51.196;3.510;2023-12-22T00:59:36;24.80;;;5.97;;
15665;SDS011;20725;51.196;3.510;2023-12-22T01:02:07;24.57;;;6.43;;
15665;SDS011;20725;51.196;3.510;2023-12-22T01:04:34;28.63;;;6.43;;
15665;SDS011;20725;51.196;3.510;2023-12-22T01:07:02;22.87;;;6.27;;
15665;SDS011;20725;51.196;3.510;2023-12-22T01:09:29;25.67;;;6.27;;
15665;SDS011;20725;51.196;3.510;2023-12-22T01:11:56;26.33;;;5.70;;
15665;SDS011;20725;51.196;3.510;2023-12-22T01:14:27;25.67;;;6.60;;
15665;SDS011;20725;51.196;3.510;2023-12-22T01:16:56;22.33;;;6.30;;
15665;SDS011;20725;51.196;3.510;2023-12-22T01:19:25;24.63;;;6.13;;
15665;SDS011;20725;51.196;3.510;2023-12-22T01:21:52;31.13;;;8.00;;
15665;SDS011;20725;51.196;3.510;2023-12-22T01:24:20;23.23;;;5.80;;
15665;SDS011;20725;51.196;3.510;2023-12-22T01:26:47;28.53;;;6.87;;
15665;SDS011;20725;51.196;3.510;2023-12-22T01:29:14;22.47;;;6.30;;
15665;SDS011;20725;51.196;3.510;2023-12-22T01:31:42;16.60;;;4.93;;
15665;SDS011;20725;51.196;3.510;2023-12-22T01:34:11;17.13;;;5.00;;
15665;SDS011;20725;51.196;3.510;2023-12-22T01:36:38;19.93;;;5.30;;
15665;SDS011;20725;51.196;3.510;2023-12-22T01:39:05;16.83;;;3.90;;
15665;SDS011;20725;51.196;3.510;2023-12-22T01:41:33;16.53;;;4.50;;
15665;SDS011;20725;51.196;3.510;2023-12-22T01:44:00;15.97;;;4.60;;
15665;SDS011;20725;51.196;3.510;2023-12-22T01:46:27;14.80;;;4.57;;
15665;SDS011;20725;51.196;3.510;2023-12-22T01:48:55;18.27;;;4.90;;
15665;SDS011;20725;51.196;3.510;2023-12-22T01:51:23;13.07;;;3.50;;
15665;SDS011;20725;51.196;3.510;2023-12-22T01:53:51;15.60;;;4.50;;
15665;SDS011;20725;51.196;3.510;2023-12-22T01:56:18;15.33;;;3.70;;
15665;SDS011;20725;51.196;3.510;2023-12-22T01:58:46;14.70;;;4.50;;
15665;SDS011;20725;51.196;3.510;2023-12-22T02:01:14;17.57;;;3.97;;
15665;SDS011;20725;51.196;3.510;2023-12-22T02:03:41;18.43;;;4.77;;
15665;SDS011;20725;51.196;3.510;2023-12-22T02:06:09;19.57;;;5.30;;
15665;SDS011;20725;51.196;3.510;2023-12-22T02:08:39;21.57;;;4.93;;
15665;SDS011;20725;51.196;3.510;2023-12-22T02:11:07;18.30;;;5.53;;
15665;SDS011;20725;51.196;3.510;2023-12-22T02:13:34;20.10;;;5.33;;
15665;SDS011;20725;51.196;3.510;2023-12-22T02:16:04;23.67;;;5.80;;
15665;SDS011;20725;51.196;3.510;2023-12-22T02:18:34;17.97;;;6.00;;
15665;SDS011;20725;51.196;3.510;2023-12-22T02:21:02;21.43;;;6.23;;
15665;SDS011;20725;51.196;3.510;2023-12-22T02:23:30;21.97;;;5.63;;
15665;SDS011;20725;51.196;3.510;2023-12-22T02:26:02;24.40;;;5.97;;
15665;SDS011;20725;51.196;3.510;2023-12-22T02:28:33;31.10;;;6.60;;
15665;SDS011;20725;51.196;3.510;2023-12-22T02:31:04;27.13;;;6.93;;
15665;SDS011;20725;51.196;3.510;2023-12-22T02:33:36;33.30;;;6.83;;
15665;SDS011;20725;51.196;3.510;2023-12-22T02:36:06;24.83;;;5.87;;
15665;SDS011;20725;51.196;3.510;2023-12-22T02:38:35;32.80;;;6.43;;
15665;SDS011;20725;51.196;3.510;2023-12-22T02:41:04;31.47;;;6.67;;
15665;SDS011;20725;51.196;3.510;2023-12-22T02:43:32;34.50;;;7.73;;
15665;SDS011;20725;51.196;3.510;2023-12-22T02:45:59;35.10;;;7.80;;
15665;SDS011;20725;51.196;3.510;2023-12-22T02:48:26;26.80;;;6.70;;
15665;SDS011;20725;51.196;3.510;2023-12-22T02:50:53;32.87;;;6.47;;
15665;SDS011;20725;51.196;3.510;2023-12-22T02:53:21;26.70;;;6.63;;
15665;SDS011;20725;51.196;3.510;2023-12-22T02:55:49;27.43;;;6.70;;
15665;SDS011;20725;51.196;3.510;2023-12-22T02:58:17;30.07;;;6.87;;
15665;SDS011;20725;51.196;3.510;2023-12-22T03:00:44;30.60;;;6.70;;
15665;SDS011;20725;51.196;3.510;2023-12-22T03:03:12;20.37;;;5.40;;
15665;SDS011;20725;51.196;3.510;2023-12-22T03:05:39;34.50;;;6.73;;
15665;SDS011;20725;51.196;3.510;2023-12-22T03:08:07;30.80;;;6.63;;
15665;SDS011;20725;51.196;3.510;2023-12-22T03:10:34;28.47;;;7.50;;
15665;SDS011;20725;51.196;3.510;2023-12-22T03:13:03;34.00;;;7.43;;
15665;SDS011;20725;51.196;3.510;2023-12-22T03:15:30;31.60;;;7.50;;
15665;SDS011;20725;51.196;3.510;2023-12-22T03:17:58;36.80;;;7.90;;
15665;SDS011;20725;51.196;3.510;2023-12-22T03:20:25;32.30;;;6.80;;
15665;SDS011;20725;51.196;3.510;2023-12-22T03:22:52;38.67;;;7.70;;
15665;SDS011;20725;51.196;3.510;2023-12-22T03:25:20;33.70;;;7.30;;
15665;SDS011;20725;51.196;3.510;2023-12-22T03:27:47;39.30;;;7.53;;
15665;SDS011;20725;51.196;3.510;2023-12-22T03:30:16;40.80;;;8.47;;
15665;SDS011;20725;51.196;3.510;2023-12-22T03:32:43;31.90;;;7.90;;
15665;SDS011;20725;51.196;3.510;2023-12-22T03:35:10;44.80;;;7.30;;
15665;SDS011;20725;51.196;3.510;2023-12-22T03:37:38;34.77;;;8.33;;
15665;SDS011;20725;51.196;3.510;2023-12-22T03:40:06;32.00;;;7.80;;
15665;SDS011;20725;51.196;3.510;2023-12-22T03:42:34;34.93;;;7.23;;
15665;SDS011;20725;51.196;3.510;2023-12-22T03:45:02;33.30;;;7.77;;
15665;SDS011;20725;51.196;3.510;2023-12-22T03:47:30;40.03;;;8.33;;
15665;SDS011;20725;51.196;3.510;2023-12-22T03:49:58;40.53;;;8.53;;
15665;SDS011;20725;51.196;3.510;2023-12-22T03:52:25;36.17;;;9.33;;
15665;SDS011;20725;51.196;3.510;2023-12-22T03:54:52;36.00;;;8.50;;
15665;SDS011;20725;51.196;3.510;2023-12-22T03:57:19;28.37;;;7.63;;
15665;SDS011;20725;51.196;3.510;2023-12-22T03:59:46;40.33;;;8.53;;
15665;SDS011;20725;51.196;3.510;2023-12-22T04:02:14;40.27;;;8.80;;
15665;SDS011;20725;51.196;3.510;2023-12-22T04:04:42;37.50;;;7.73;;
15665;SDS011;20725;51.196;3.510;2023-12-22T04:07:10;30.57;;;7.50;;
15665;SDS011;20725;51.196;3.510;2023-12-22T04:09:37;35.23;;;8.33;;
15665;SDS011;20725;51.196;3.510;2023-12-22T04:12:05;48.47;;;8.60;;
15665;SDS011;20725;51.196;3.510;2023-12-22T04:14:32;31.40;;;7.93;;
15665;SDS011;20725;51.196;3.510;2023-12-22T04:16:59;36.60;;;7.83;;
15665;SDS011;20725;51.196;3.510;2023-12-22T04:19:27;28.97;;;6.93;;
15665;SDS011;20725;51.196;3.510;2023-12-22T04:21:55;34.20;;;8.77;;
15665;SDS011;20725;51.196;3.510;2023-12-22T04:24:23;30.60;;;6.90;;
15665;SDS011;20725;51.196;3.510;2023-12-22T04:26:50;35.97;;;7.53;;
15665;SDS011;20725;51.196;3.510;2023-12-22T04:29:18;31.00;;;8.30;;
15665;SDS011;20725;51.196;3.510;2023-12-22T04:31:45;37.67;;;8.33;;
15665;SDS011;20725;51.196;3.510;2023-12-22T04:34:13;36.40;;;7.90;;
15665;SDS011;20725;51.196;3.510;2023-12-22T04:36:40;31.70;;;6.93;;
15665;SDS011;20725;51.196;3.510;2023-12-22T04:39:09;32.00;;;8.47;;
15665;SDS011;20725;51.196;3.510;2023-12-22T04:41:36;31.83;;;7.23;;
15665;SDS011;20725;51.196;3.510;2023-12-22T04:44:04;33.60;;;7.50;;
15665;SDS011;20725;51.196;3.510;2023-12-22T04:46:31;26.40;;;6.77;;
15665;SDS011;20725;51.196;3.510;2023-12-22T04:48:58;29.23;;;7.77;;
15665;SDS011;20725;51.196;3.510;2023-12-22T04:51:27;23.47;;;7.20;;
15665;SDS011;20725;51.196;3.510;2023-12-22T04:53:54;32.70;;;6.60;;
15665;SDS011;20725;51.196;3.510;2023-12-22T04:56:23;28.60;;;6.20;;
15665;SDS011;20725;51.196;3.510;2023-12-22T04:58:50;25.23;;;5.93;;
15665;SDS011;20725;51.196;3.510;2023-12-22T05:01:17;29.20;;;6.07;;
15665;SDS011;20725;51.196;3.510;2023-12-22T05:03:44;24.20;;;5.77;;
15665;SDS011;20725;51.196;3.510;2023-12-22T05:06:12;25.57;;;6.23;;
15665;SDS011;20725;51.196;3.510;2023-12-22T05:08:40;22.47;;;6.23;;
15665;SDS011;20725;51.196;3.510;2023-12-22T05:11:07;22.57;;;5.70;;
15665;SDS011;20725;51.196;3.510;2023-12-22T05:13:36;21.67;;;5.63;;
15665;SDS011;20725;51.196;3.510;2023-12-22T05:16:03;20.47;;;6.17;;
15665;SDS011;20725;51.196;3.510;2023-12-22T05:18:31;29.27;;;5.83;;
15665;SDS011;20725;51.196;3.510;2023-12-22T05:20:58;23.33;;;5.70;;
15665;SDS011;20725;51.196;3.510;2023-12-22T05:23:26;25.43;;;5.73;;
15665;SDS011;20725;51.196;3.510;2023-12-22T05:25:53;17.47;;;5.77;;
15665;SDS011;20725;51.196;3.510;2023-12-22T05:28:20;15.73;;;4.90;;
15665;SDS011;20725;51.196;3.510;2023-12-22T05:30:49;19.83;;;5.53;;
15665;SDS011;20725;51.196;3.510;2023-12-22T05:33:16;20.03;;;4.77;;
15665;SDS011;20725;51.196;3.510;2023-12-22T05:35:44;29.93;;;5.87;;
15665;SDS011;20725;51.196;3.510;2023-12-22T05:38:11;18.53;;;4.83;;
15665;SDS011;20725;51.196;3.510;2023-12-22T05:40:39;17.83;;;5.10;;
15665;SDS011;20725;51.196;3.510;2023-12-22T05:43:06;18.93;;;4.90;;
15665;SDS011;20725;51.196;3.510;2023-12-22T05:45:34;22.33;;;5.07;;
15665;SDS011;20725;51.196;3.510;2023-12-22T05:48:03;18.10;;;4.47;;
15665;SDS011;20725;51.196;3.510;2023-12-22T05:50:30;17.57;;;4.60;;
15665;SDS011;20725;51.196;3.510;2023-12-22T05:52:58;16.47;;;4.80;;
15665;SDS011;20725;51.196;3.510;2023-12-22T05:55:25;14.87;;;4.40;;
15665;SDS011;20725;51.196;3.510;2023-12-22T05:57:52;17.73;;;4.77;;
15665;SDS011;20725;51.196;3.510;2023-12-22T06:00:20;11.17;;;4.20;;
15665;SDS011;20725;51.196;3.510;2023-12-22T06:02:47;16.17;;;5.13;;
15665;SDS011;20725;51.196;3.510;2023-12-22T06:05:16;14.30;;;4.60;;
15665;SDS011;20725;51.196;3.510;2023-12-22T06:07:44;21.90;;;5.63;;
15665;SDS011;20725;51.196;3.510;2023-12-22T06:10:11;19.67;;;5.03;;
15665;SDS011;20725;51.196;3.510;2023-12-22T06:12:38;17.07;;;5.10;;
15665;SDS011;20725;51.196;3.510;2023-12-22T06:15:06;23.53;;;5.30;;
15665;SDS011;20725;51.196;3.510;2023-12-22T06:17:33;20.07;;;4.73;;
15665;SDS011;20725;51.196;3.510;2023-12-22T06:20:01;24.23;;;5.77;;
15665;SDS011;20725;51.196;3.510;2023-12-22T06:22:29;31.50;;;5.53;;
15665;SDS011;20725;51.196;3.510;2023-12-22T06:24:57;23.77;;;5.23;;
15665;SDS011;20725;51.196;3.510;2023-12-22T06:27:25;17.60;;;4.60;;
15665;SDS011;20725;51.196;3.510;2023-12-22T06:29:52;19.50;;;5.47;;
15665;SDS011;20725;51.196;3.510;2023-12-22T06:32:20;26.03;;;5.23;;
15665;SDS011;20725;51.196;3.510;2023-12-22T06:34:48;17.97;;;4.87;;
15665;SDS011;20725;51.196;3.510;2023-12-22T06:37:16;18.10;;;4.17;;
15665;SDS011;20725;51.196;3.510;2023-12-22T06:39:45;22.00;;;4.73;;
15665;SDS011;20725;51.196;3.510;2023-12-22T06:42:12;20.80;;;4.60;;
15665;SDS011;20725;51.196;3.510;2023-12-22T06:44:41;13.50;;;3.57;;
15665;SDS011;20725;51.196;3.510;2023-12-22T06:47:09;16.47;;;3.70;;
15665;SDS011;20725;51.196;3.510;2023-12-22T06:49:36;14.07;;;4.10;;
15665;SDS011;20725;51.196;3.510;2023-12-22T06:52:04;16.87;;;4.27;;
15665;SDS011;20725;51.196;3.510;2023-12-22T06:54:31;15.83;;;3.60;;
15665;SDS011;20725;51.196;3.510;2023-12-22T06:57:00;16.03;;;4.07;;
15665;SDS011;20725;51.196;3.510;2023-12-22T06:59:27;14.63;;;3.77;;
15665;SDS011;20725;51.196;3.510;2023-12-22T07:01:54;11.40;;;3.20;;
15665;SDS011;20725;51.196;3.510;2023-12-22T07:04:22;8.70;;;3.00;;
15665;SDS011;20725;51.196;3.510;2023-12-22T07:06:49;15.07;;;3.10;;
15665;SDS011;20725;51.196;3.510;2023-12-22T07:09:32;9.97;;;3.23;;
15665;SDS011;20725;51.196;3.510;2023-12-22T07:12:00;13.07;;;3.13;;
15665;SDS011;20725;51.196;3.510;2023-12-22T07:14:29;7.57;;;2.67;;
15665;SDS011;20725;51.196;3.510;2023-12-22T07:16:56;5.60;;;2.80;;
15665;SDS011;20725;51.196;3.510;2023-12-22T07:19:25;8.57;;;3.20;;
15665;SDS011;20725;51.196;3.510;2023-12-22T07:21:52;8.23;;;2.80;;
15665;SDS011;20725;51.196;3.510;2023-12-22T07:24:20;4.87;;;2.50;;
15665;SDS011;20725;51.196;3.510;2023-12-22T07:26:47;7.33;;;2.43;;
15665;SDS011;20725;51.196;3.510;2023-12-22T07:29:15;8.57;;;2.47;;
15665;SDS011;20725;51.196;3.510;2023-12-22T07:31:43;5.33;;;2.30;;
15665;SDS011;20725;51.196;3.510;2023-12-22T07:34:10;4.03;;;2.50;;
15665;SDS011;20725;51.196;3.510;2023-12-22T07:36:38;3.97;;;2.50;;
15665;SDS011;20725;51.196;3.510;2023-12-22T07:39:05;3.83;;;2.47;;
15665;SDS011;20725;51.196;3.510;2023-12-22T07:41:34;5.13;;;2.60;;
15665;SDS011;20725;51.196;3.510;2023-12-22T07:44:01;9.73;;;3.10;;
15665;SDS011;20725;51.196;3.510;2023-12-22T07:46:30;4.53;;;2.50;;
15665;SDS011;20725;51.196;3.510;2023-12-22T07:48:58;6.23;;;2.77;;
15665;SDS011;20725;51.196;3.510;2023-12-22T07:51:26;10.23;;;3.10;;
15665;SDS011;20725;51.196;3.510;2023-12-22T07:53:53;10.53;;;3.30;;
15665;SDS011;20725;51.196;3.510;2023-12-22T07:56:20;10.37;;;3.07;;
15665;SDS011;20725;51.196;3.510;2023-12-22T07:58:47;9.13;;;3.10;;
15665;SDS011;20725;51.196;3.510;2023-12-22T08:01:15;12.87;;;3.70;;
15665;SDS011;20725;51.196;3.510;2023-12-22T08:03:44;14.27;;;3.20;;
15665;SDS011;20725;51.196;3.510;2023-12-22T08:06:11;8.13;;;3.30;;
15665;SDS011;20725;51.196;3.510;2023-12-22T08:08:39;9.53;;;3.67;;
15665;SDS011;20725;51.196;3.510;2023-12-22T08:11:07;12.83;;;3.60;;
15665;SDS011;20725;51.196;3.510;2023-12-22T08:13:34;12.97;;;3.20;;
15665;SDS011;20725;51.196;3.510;2023-12-22T08:16:02;13.43;;;3.80;;
15665;SDS011;20725;51.196;3.510;2023-12-22T08:18:31;12.33;;;3.30;;
15665;SDS011;20725;51.196;3.510;2023-12-22T08:21:01;14.57;;;4.00;;
15665;SDS011;20725;51.196;3.510;2023-12-22T08:23:28;10.40;;;2.97;;
15665;SDS011;20725;51.196;3.510;2023-12-22T08:25:56;13.30;;;3.03;;
15665;SDS011;20725;51.196;3.510;2023-12-22T08:28:24;9.77;;;2.77;;
15665;SDS011;20725;51.196;3.510;2023-12-22T08:30:51;10.40;;;3.10;;
15665;SDS011;20725;51.196;3.510;2023-12-22T08:33:19;9.67;;;3.00;;
15665;SDS011;20725;51.196;3.510;2023-12-22T08:35:46;9.07;;;2.67;;
15665;SDS011;20725;51.196;3.510;2023-12-22T08:38:15;8.03;;;2.87;;
15665;SDS011;20725;51.196;3.510;2023-12-22T08:40:42;9.67;;;2.87;;
15665;SDS011;20725;51.196;3.510;2023-12-22T08:43:10;5.67;;;2.20;;
15665;SDS011;20725;51.196;3.510;2023-12-22T08:45:37;16.93;;;3.57;;
15665;SDS011;20725;51.196;3.510;2023-12-22T08:48:05;7.43;;;2.70;;
15665;SDS011;20725;51.196;3.510;2023-12-22T08:50:34;10.10;;;2.80;;
15665;SDS011;20725;51.196;3.510;2023-12-22T08:53:01;12.83;;;3.00;;
15665;SDS011;20725;51.196;3.510;2023-12-22T08:55:30;9.50;;;2.80;;
15665;SDS011;20725;51.196;3.510;2023-12-22T08:57:58;5.60;;;1.90;;
15665;SDS011;20725;51.196;3.510;2023-12-22T09:00:25;7.77;;;1.87;;
15665;SDS011;20725;51.196;3.510;2023-12-22T09:02:54;6.23;;;2.40;;
15665;SDS011;20725;51.196;3.510;2023-12-22T09:05:21;8.17;;;2.63;;
15665;SDS011;20725;51.196;3.510;2023-12-22T09:07:49;4.70;;;1.90;;
15665;SDS011;20725;51.196;3.510;2023-12-22T09:10:16;6.97;;;1.77;;
15665;SDS011;20725;51.196;3.510;2023-12-22T09:12:45;8.83;;;2.30;;
15665;SDS011;20725;51.196;3.510;2023-12-22T09:15:13;8.77;;;2.40;;
15665;SDS011;20725;51.196;3.510;2023-12-22T09:17:41;2.80;;;1.73;;
15665;SDS011;20725;51.196;3.510;2023-12-22T09:20:08;8.83;;;2.50;;
15665;SDS011;20725;51.196;3.510;2023-12-22T09:22:36;4.87;;;2.00;;
15665;SDS011;20725;51.196;3.510;2023-12-22T09:25:03;5.43;;;2.00;;
15665;SDS011;20725;51.196;3.510;2023-12-22T09:27:30;9.57;;;2.47;;
15665;SDS011;20725;51.196;3.510;2023-12-22T09:30:01;8.20;;;2.07;;
15665;SDS011;20725;51.196;3.510;2023-12-22T09:32:31;5.20;;;1.83;;
15665;SDS011;20725;51.196;3.510;2023-12-22T09:35:00;10.20;;;2.43;;
15665;SDS011;20725;51.196;3.510;2023-12-22T09:37:28;4.27;;;1.73;;
15665;SDS011;20725;51.196;3.510;2023-12-22T09:39:55;8.97;;;2.60;;
15665;SDS011;20725;51.196;3.510;2023-12-22T09:42:22;7.17;;;2.40;;
15665;SDS011;20725;51.196;3.510;2023-12-22T09:44:51;10.70;;;2.40;;
15665;SDS011;20725;51.196;3.510;2023-12-22T09:47:24;6.80;;;2.40;;
15665;SDS011;20725;51.196;3.510;2023-12-22T09:49:54;9.87;;;2.37;;
15665;SDS011;20725;51.196;3.510;2023-12-22T09:52:22;5.93;;;2.27;;
15665;SDS011;20725;51.196;3.510;2023-12-22T09:54:49;6.30;;;2.10;;
15665;SDS011;20725;51.196;3.510;2023-12-22T09:57:17;4.63;;;2.30;;
15665;SDS011;20725;51.196;3.510;2023-12-22T09:59:44;6.33;;;2.30;;
15665;SDS011;20725;51.196;3.510;2023-12-22T10:02:11;6.70;;;2.40;;
15665;SDS011;20725;51.196;3.510;2023-12-22T10:04:40;6.47;;;1.97;;
15665;SDS011;20725;51.196;3.510;2023-12-22T10:07:08;8.20;;;2.50;;
15665;SDS011;20725;51.196;3.510;2023-12-22T10:09:36;6.73;;;2.10;;
15665;SDS011;20725;51.196;3.510;2023-12-22T10:12:04;6.07;;;2.10;;
15665;SDS011;20725;51.196;3.510;2023-12-22T10:14:31;6.43;;;2.50;;
15665;SDS011;20725;51.196;3.510;2023-12-22T10:17:01;7.60;;;2.40;;
15665;SDS011;20725;51.196;3.510;2023-12-22T10:19:28;13.97;;;4.07;;
15665;SDS011;20725;51.196;3.510;2023-12-22T10:21:57;9.90;;;2.77;;
15665;SDS011;20725;51.196;3.510;2023-12-22T10:24:36;8.00;;;2.83;;
15665;SDS011;20725;51.196;3.510;2023-12-22T10:27:04;6.83;;;2.40;;
15665;SDS011;20725;51.196;3.510;2023-12-22T10:29:32;6.93;;;1.93;;
15665;SDS011;20725;51.196;3.510;2023-12-22T10:32:00;5.60;;;2.40;;
15665;SDS011;20725;51.196;3.510;2023-12-22T10:34:28;6.70;;;1.97;;
15665;SDS011;20725;51.196;3.510;2023-12-22T10:36:56;6.40;;;2.20;;
15665;SDS011;20725;51.196;3.510;2023-12-22T10:39:26;7.43;;;2.63;;
15665;SDS011;20725;51.196;3.510;2023-12-22T10:41:53;6.20;;;2.23;;
15665;SDS011;20725;51.196;3.510;2023-12-22T10:44:23;5.37;;;1.90;;
15665;SDS011;20725;51.196;3.510;2023-12-22T10:46:50;5.63;;;1.80;;
15665;SDS011;20725;51.196;3.510;2023-12-22T10:49:18;3.77;;;1.83;;
15665;SDS011;20725;51.196;3.510;2023-12-22T10:51:47;3.13;;;1.57;;
15665;SDS011;20725;51.196;3.510;2023-12-22T10:54:16;4.70;;;2.40;;
15665;SDS011;20725;51.196;3.510;2023-12-22T10:56:43;5.00;;;1.77;;
15665;SDS011;20725;51.196;3.510;2023-12-22T10:59:11;3.43;;;1.90;;
15665;SDS011;20725;51.196;3.510;2023-12-22T11:01:38;5.53;;;2.03;;
15665;SDS011;20725;51.196;3.510;2023-12-22T11:04:06;6.00;;;1.70;;
15665;SDS011;20725;51.196;3.510;2023-12-22T11:06:34;7.83;;;2.17;;
15665;SDS011;20725;51.196;3.510;2023-12-22T11:09:03;4.90;;;2.13;;
15665;SDS011;20725;51.196;3.510;2023-12-22T11:11:35;5.40;;;1.80;;
15665;SDS011;20725;51.196;3.510;2023-12-22T11:14:03;6.60;;;1.93;;
15665;SDS011;20725;51.196;3.510;2023-12-22T11:16:31;5.43;;;2.00;;
15665;SDS011;20725;51.196;3.510;2023-12-22T11:18:59;3.93;;;2.30;;
15665;SDS011;20725;51.196;3.510;2023-12-22T11:21:28;5.97;;;1.73;;
15665;SDS011;20725;51.196;3.510;2023-12-22T11:23:56;10.27;;;2.40;;
15665;SDS011;20725;51.196;3.510;2023-12-22T11:26:24;5.00;;;2.20;;
15665;SDS011;20725;51.196;3.510;2023-12-22T11:28:53;6.50;;;2.07;;
15665;SDS011;20725;51.196;3.510;2023-12-22T11:31:20;10.53;;;2.60;;
15665;SDS011;20725;51.196;3.510;2023-12-22T11:33:48;8.47;;;2.60;;
15665;SDS011;20725;51.196;3.510;2023-12-22T11:36:17;7.90;;;2.80;;
15665;SDS011;20725;51.196;3.510;2023-12-22T11:38:45;6.60;;;2.10;;
15665;SDS011;20725;51.196;3.510;2023-12-22T11:41:14;7.30;;;2.40;;
15665;SDS011;20725;51.196;3.510;2023-12-22T11:43:42;9.33;;;2.77;;
15665;SDS011;20725;51.196;3.510;2023-12-22T11:46:13;6.73;;;2.17;;
15665;SDS011;20725;51.196;3.510;2023-12-22T11:48:46;9.97;;;3.53;;
15665;SDS011;20725;51.196;3.510;2023-12-22T11:51:14;7.83;;;2.33;;
15665;SDS011;20725;51.196;3.510;2023-12-22T11:53:42;15.83;;;2.83;;
15665;SDS011;20725;51.196;3.510;2023-12-22T11:56:10;9.00;;;2.67;;
15665;SDS011;20725;51.196;3.510;2023-12-22T11:58:39;9.27;;;3.03;;
15665;SDS011;20725;51.196;3.510;2023-12-22T12:01:07;12.30;;;3.17;;
15665;SDS011;20725;51.196;3.510;2023-12-22T12:03:40;8.53;;;3.00;;
15665;SDS011;20725;51.196;3.510;2023-12-22T12:06:11;11.03;;;2.70;;
15665;SDS011;20725;51.196;3.510;2023-12-22T12:08:41;8.63;;;2.43;;
15665;SDS011;20725;51.196;3.510;2023-12-22T12:11:08;5.90;;;2.80;;
15665;SDS011;20725;51.196;3.510;2023-12-22T12:13:39;9.90;;;2.80;;
15665;SDS011;20725;51.196;3.510;2023-12-22T12:16:10;10.53;;;2.73;;
15665;SDS011;20725;51.196;3.510;2023-12-22T12:18:39;9.57;;;3.17;;
15665;SDS011;20725;51.196;3.510;2023-12-22T12:21:07;10.03;;;2.40;;
15665;SDS011;20725;51.196;3.510;2023-12-22T12:23:35;12.07;;;2.63;;
15665;SDS011;20725;51.196;3.510;2023-12-22T12:26:02;7.33;;;2.60;;
15665;SDS011;20725;51.196;3.510;2023-12-22T12:28:30;9.40;;;2.77;;
15665;SDS011;20725;51.196;3.510;2023-12-22T12:30:58;8.67;;;3.00;;
15665;SDS011;20725;51.196;3.510;2023-12-22T12:33:26;13.73;;;3.03;;
15665;SDS011;20725;51.196;3.510;2023-12-22T12:35:55;7.37;;;2.40;;
15665;SDS011;20725;51.196;3.510;2023-12-22T12:38:23;8.67;;;2.60;;
15665;SDS011;20725;51.196;3.510;2023-12-22T12:40:55;5.67;;;2.10;;
15665;SDS011;20725;51.196;3.510;2023-12-22T12:43:23;9.67;;;2.10;;
15665;SDS011;20725;51.196;3.510;2023-12-22T12:45:51;6.53;;;2.67;;
15665;SDS011;20725;51.196;3.510;2023-12-22T12:48:19;7.40;;;2.57;;
15665;SDS011;20725;51.196;3.510;2023-12-22T12:50:48;10.17;;;2.73;;
15665;SDS011;20725;51.196;3.510;2023-12-22T12:53:17;6.53;;;2.10;;
15665;SDS011;20725;51.196;3.510;2023-12-22T12:55:45;5.03;;;2.20;;
15665;SDS011;20725;51.196;3.510;2023-12-22T12:58:12;6.77;;;2.00;;
15665;SDS011;20725;51.196;3.510;2023-12-22T13:00:40;9.27;;;2.13;;
15665;SDS011;20725;51.196;3.510;2023-12-22T13:03:07;5.80;;;2.30;;
15665;SDS011;20725;51.196;3.510;2023-12-22T13:05:35;8.67;;;2.30;;
15665;SDS011;20725;51.196;3.510;2023-12-22T13:08:09;5.83;;;2.40;;
15665;SDS011;20725;51.196;3.510;2023-12-22T13:10:38;8.60;;;2.37;;
15665;SDS011;20725;51.196;3.510;2023-12-22T13:13:06;6.73;;;2.97;;
15665;SDS011;20725;51.196;3.510;2023-12-22T13:15:33;10.60;;;3.33;;
15665;SDS011;20725;51.196;3.510;2023-12-22T13:18:00;8.40;;;2.80;;
15665;SDS011;20725;51.196;3.510;2023-12-22T13:20:29;8.67;;;2.83;;
15665;SDS011;20725;51.196;3.510;2023-12-22T13:22:56;9.70;;;2.67;;
15665;SDS011;20725;51.196;3.510;2023-12-22T13:25:24;10.67;;;3.37;;
15665;SDS011;20725;51.196;3.510;2023-12-22T13:27:53;14.93;;;3.33;;
15665;SDS011;20725;51.196;3.510;2023-12-22T13:33:10;7.30;;;3.00;;
15665;SDS011;20725;51.196;3.510;2023-12-22T13:35:38;7.70;;;2.50;;
15665;SDS011;20725;51.196;3.510;2023-12-22T13:38:05;10.23;;;3.17;;
15665;SDS011;20725;51.196;3.510;2023-12-22T13:40:33;9.00;;;3.03;;
15665;SDS011;20725;51.196;3.510;2023-12-22T13:43:03;6.30;;;2.30;;
15665;SDS011;20725;51.196;3.510;2023-12-22T13:45:30;8.47;;;2.70;;
15665;SDS011;20725;51.196;3.510;2023-12-22T13:47:58;7.03;;;2.47;;
15665;SDS011;20725;51.196;3.510;2023-12-22T13:50:25;7.93;;;2.50;;
15665;SDS011;20725;51.196;3.510;2023-12-22T13:52:53;6.20;;;2.87;;
15665;SDS011;20725;51.196;3.510;2023-12-22T13:55:20;7.77;;;2.27;;
15665;SDS011;20725;51.196;3.510;2023-12-22T13:57:48;9.60;;;2.40;;
15665;SDS011;20725;51.196;3.510;2023-12-22T14:00:27;10.77;;;3.13;;
15665;SDS011;20725;51.196;3.510;2023-12-22T14:02:55;12.00;;;2.50;;
15665;SDS011;20725;51.196;3.510;2023-12-22T14:05:22;10.10;;;2.47;;
15665;SDS011;20725;51.196;3.510;2023-12-22T14:07:49;10.33;;;2.60;;
15665;SDS011;20725;51.196;3.510;2023-12-22T14:10:17;8.00;;;3.30;;
15665;SDS011;20725;51.196;3.510;2023-12-22T14:12:45;13.80;;;3.20;;
15665;SDS011;20725;51.196;3.510;2023-12-22T14:15:11;6.00;;;2.50;;
15665;SDS011;20725;51.196;3.510;2023-12-22T14:17:40;8.37;;;2.43;;
15665;SDS011;20725;51.196;3.510;2023-12-22T14:20:08;8.87;;;2.80;;
15665;SDS011;20725;51.196;3.510;2023-12-22T14:22:36;7.20;;;2.47;;
15665;SDS011;20725;51.196;3.510;2023-12-22T14:25:04;5.70;;;2.13;;
15665;SDS011;20725;51.196;3.510;2023-12-22T14:27:30;10.07;;;2.80;;
15665;SDS011;20725;51.196;3.510;2023-12-22T14:29:59;9.40;;;3.43;;
15665;SDS011;20725;51.196;3.510;2023-12-22T14:32:26;8.17;;;2.30;;
15665;SDS011;20725;51.196;3.510;2023-12-22T14:34:56;8.03;;;2.40;;
15665;SDS011;20725;51.196;3.510;2023-12-22T14:37:24;7.73;;;2.50;;
15665;SDS011;20725;51.196;3.510;2023-12-22T14:39:51;11.97;;;3.10;;
15665;SDS011;20725;51.196;3.510;2023-12-22T14:42:19;12.07;;;2.87;;
15665;SDS011;20725;51.196;3.510;2023-12-22T14:44:46;8.90;;;2.63;;
15665;SDS011;20725;51.196;3.510;2023-12-22T14:47:14;8.27;;;2.50;;